createdAt,value
2023-01-08T00:02:01.252Z,46.85
2023-01-08T00:04:28.575Z,47.04
2023-01-08T00:06:55.885Z,46.92
2023-01-08T00:09:23.283Z,46.81
2023-01-08T00:11:50.465Z,46.69
2023-01-08T00:14:17.834Z,46.76
2023-01-08T00:16:45.182Z,46.90
2023-01-08T00:19:12.682Z,46.76
2023-01-08T00:21:40.101Z,47.08
2023-01-08T00:24:07.465Z,46.93
2023-01-08T00:26:34.713Z,46.98
2023-01-08T00:29:02.062Z,46.95
2023-01-08T00:31:29.397Z,46.68
2023-01-08T00:33:56.659Z,47.05
2023-01-08T00:36:23.916Z,47.04
2023-01-08T00:38:51.189Z,46.93
2023-01-08T00:43:45.673Z,46.75
2023-01-08T00:46:13.017Z,46.86
2023-01-08T00:51:07.617Z,46.88
2023-01-08T00:53:34.880Z,46.83
2023-01-08T00:56:02.169Z,46.90
2023-01-08T00:58:29.464Z,46.64
2023-01-08T01:00:58.023Z,46.68
2023-01-08T01:03:25.373Z,46.75
2023-01-08T01:05:55.185Z,46.85
2023-01-08T01:08:22.519Z,47.05
2023-01-08T01:10:49.783Z,46.62
2023-01-08T01:13:17.021Z,46.79
2023-01-08T01:15:44.277Z,46.88
2023-01-08T01:18:14.672Z,46.97
2023-01-08T01:20:44.914Z,46.90
2023-01-08T01:23:12.183Z,46.84
2023-01-08T01:25:39.390Z,46.77
2023-01-08T01:28:06.598Z,46.65
2023-01-08T01:30:33.940Z,46.61
2023-01-08T01:33:01.161Z,46.92
2023-01-08T01:35:28.519Z,46.81
2023-01-08T01:37:55.793Z,46.85
2023-01-08T01:40:23.115Z,46.51
2023-01-08T01:42:50.363Z,46.82
2023-01-08T01:45:17.735Z,46.50
2023-01-08T01:47:45.041Z,46.54
2023-01-08T01:50:12.472Z,46.72
2023-01-08T01:52:42.606Z,46.84
2023-01-08T01:57:37.061Z,46.88
2023-01-08T02:00:04.761Z,46.83
2023-01-08T02:02:32.901Z,46.46
2023-01-08T02:05:00.297Z,46.91
2023-01-08T02:07:27.570Z,46.68
2023-01-08T02:09:54.763Z,46.62
2023-01-08T02:12:22.139Z,46.86
2023-01-08T02:14:49.444Z,46.66
2023-01-08T02:17:16.790Z,46.65
2023-01-08T02:19:44.150Z,46.80
2023-01-08T02:22:11.415Z,46.86
2023-01-08T02:24:38.763Z,46.87
2023-01-08T02:27:05.998Z,46.59
2023-01-08T02:29:33.320Z,46.56
2023-01-08T02:32:00.638Z,46.74
2023-01-08T02:34:28.603Z,46.79
2023-01-08T02:36:55.821Z,46.86
2023-01-08T02:39:23.128Z,46.41
2023-01-08T02:41:50.345Z,46.45
2023-01-08T02:46:44.729Z,46.67
2023-01-08T02:49:14.892Z,46.73
2023-01-08T02:51:42.228Z,46.66
2023-01-08T02:54:09.555Z,46.73
2023-01-08T02:56:36.939Z,46.73
2023-01-08T02:59:04.295Z,46.59
2023-01-08T03:01:31.732Z,46.62
2023-01-08T03:03:59.105Z,46.70
2023-01-08T03:06:26.460Z,46.44
2023-01-08T03:08:53.760Z,46.56
2023-01-08T03:11:21.025Z,46.73
2023-01-08T03:13:48.337Z,46.45
2023-01-08T03:16:15.613Z,46.41
2023-01-08T03:18:43.026Z,46.66
2023-01-08T03:23:37.425Z,46.61
2023-01-08T03:26:04.795Z,46.52
2023-01-08T03:28:33.039Z,46.44
2023-01-08T03:31:00.341Z,46.57
2023-01-08T03:33:27.662Z,46.34
2023-01-08T03:35:55.061Z,46.58
2023-01-08T03:38:22.431Z,46.47
2023-01-08T03:40:49.780Z,46.60
2023-01-08T03:43:17.072Z,46.56
2023-01-08T03:45:44.346Z,46.63
2023-01-08T03:48:14.269Z,46.61
2023-01-08T03:50:41.899Z,46.51
2023-01-08T03:55:36.267Z,46.29
2023-01-08T03:58:03.520Z,46.43
2023-01-08T04:00:30.833Z,46.48
2023-01-08T04:02:58.086Z,46.70
2023-01-08T04:05:25.351Z,46.42
2023-01-08T04:07:52.629Z,46.75
2023-01-08T04:10:19.850Z,46.49
2023-01-08T04:12:47.117Z,46.41
2023-01-08T04:15:14.413Z,46.44
2023-01-08T04:17:41.683Z,46.71
2023-01-08T04:22:36.171Z,46.56
2023-01-08T04:25:03.453Z,46.48
2023-01-08T04:27:30.940Z,46.79
2023-01-08T04:29:58.135Z,46.40
2023-01-08T04:32:25.494Z,46.62
2023-01-08T04:37:19.895Z,46.70
2023-01-08T04:39:47.238Z,46.60
2023-01-08T04:42:14.455Z,46.57
2023-01-08T04:44:41.726Z,46.32
2023-01-08T04:49:36.270Z,46.55
2023-01-08T04:52:03.547Z,46.60
2023-01-08T04:54:30.891Z,46.55
2023-01-08T04:56:58.150Z,46.61
2023-01-08T04:59:25.369Z,46.35
2023-01-08T05:01:52.831Z,46.67
2023-01-08T05:06:47.476Z,46.50
2023-01-08T05:09:14.760Z,46.48
2023-01-08T05:11:43.323Z,46.63
2023-01-08T05:14:10.595Z,46.52
2023-01-08T05:16:37.910Z,46.45
2023-01-08T05:19:05.173Z,46.59
2023-01-08T05:21:32.441Z,46.64
2023-01-08T05:23:59.662Z,46.41
2023-01-08T05:26:26.912Z,46.28
2023-01-08T05:28:54.166Z,46.33
2023-01-08T05:31:21.432Z,46.38
2023-01-08T05:33:51.621Z,46.38
2023-01-08T05:38:46.314Z,46.57
2023-01-08T05:43:40.862Z,46.69
2023-01-08T05:48:35.369Z,46.57
2023-01-08T05:51:02.687Z,46.55
2023-01-08T05:53:32.124Z,46.36
2023-01-08T05:55:59.419Z,46.56
2023-01-08T05:58:27.483Z,46.31
2023-01-08T06:00:54.625Z,46.37
2023-01-08T06:03:21.817Z,46.50
2023-01-08T06:05:48.884Z,46.49
2023-01-08T06:08:16.053Z,46.49
2023-01-08T06:10:43.187Z,46.58
2023-01-08T06:15:57.499Z,46.61
2023-01-08T06:18:24.628Z,46.37
2023-01-08T06:20:51.765Z,46.48
2023-01-08T06:26:05.852Z,46.42
2023-01-08T06:28:32.925Z,46.41
2023-01-08T06:33:47.007Z,46.64
2023-01-08T06:36:14.087Z,46.39
2023-01-08T06:38:41.184Z,46.62
2023-01-08T06:43:55.868Z,46.51
2023-01-08T06:46:22.992Z,46.42
2023-01-08T06:48:50.128Z,46.54
2023-01-08T06:54:04.284Z,46.48
2023-01-08T06:56:31.347Z,46.49
2023-01-08T06:58:58.416Z,46.57
2023-01-08T07:01:25.646Z,46.53
2023-01-08T07:06:39.765Z,46.66
2023-01-08T07:09:06.943Z,46.48
2023-01-08T07:11:34.131Z,46.45
2023-01-08T07:14:01.218Z,46.45
2023-01-08T07:16:28.391Z,46.70
2023-01-08T07:18:55.534Z,46.41
2023-01-08T07:21:23.489Z,46.67
2023-01-08T07:23:50.618Z,46.51
2023-01-08T07:26:17.685Z,46.44
2023-01-08T07:28:44.778Z,46.61
2023-01-08T07:31:11.975Z,46.49
2023-01-08T07:33:39.207Z,46.65
2023-01-08T07:36:06.360Z,46.66
2023-01-08T07:38:33.500Z,46.43
2023-01-08T07:41:00.577Z,46.70
2023-01-08T07:43:29.981Z,46.56
2023-01-08T07:45:57.746Z,46.43
2023-01-08T07:48:24.850Z,46.53
2023-01-08T07:50:51.960Z,46.64
2023-01-08T07:53:19.214Z,46.37
2023-01-08T07:55:47.895Z,46.62
2023-01-08T07:58:14.950Z,46.73
2023-01-08T08:00:42.061Z,46.25
2023-01-08T08:03:11.374Z,46.35
2023-01-08T08:05:38.790Z,46.43
2023-01-08T08:08:05.900Z,46.55
2023-01-08T08:10:32.976Z,46.35
2023-01-08T08:13:00.107Z,46.30
2023-01-08T08:15:27.176Z,46.43
2023-01-08T08:17:54.264Z,46.37
2023-01-08T08:20:21.341Z,46.23
2023-01-08T08:22:48.407Z,46.50
2023-01-08T08:25:15.501Z,46.38
2023-01-08T08:27:42.624Z,46.44
2023-01-08T08:32:56.715Z,46.30
2023-01-08T08:35:23.797Z,46.33
2023-01-08T08:37:50.847Z,46.19
2023-01-08T08:40:17.948Z,46.10
2023-01-08T08:42:45.027Z,46.23
2023-01-08T08:45:12.090Z,46.16
2023-01-08T08:47:39.175Z,46.18
2023-01-08T08:50:06.243Z,46.08
2023-01-08T08:52:33.361Z,46.13
2023-01-08T08:55:00.427Z,46.32
2023-01-08T08:57:27.495Z,46.21
2023-01-08T08:59:54.620Z,46.33
2023-01-08T09:02:21.853Z,46.01
2023-01-08T09:04:49.064Z,46.07
2023-01-08T09:07:16.146Z,46.13
2023-01-08T09:09:43.230Z,46.20
2023-01-08T09:14:57.867Z,46.03
2023-01-08T09:17:25.972Z,46.15
2023-01-08T09:19:53.174Z,45.87
2023-01-08T09:22:20.265Z,45.96
2023-01-08T09:24:47.367Z,46.02
2023-01-08T09:30:01.589Z,45.86
2023-01-08T09:32:28.693Z,45.89
2023-01-08T09:34:55.823Z,45.75
2023-01-08T09:37:23.417Z,46.02
2023-01-08T09:39:57.704Z,45.80
2023-01-08T09:42:29.026Z,46.10
2023-01-08T09:44:56.101Z,46.11
2023-01-08T09:47:23.198Z,45.75
2023-01-08T09:49:50.272Z,46.05
2023-01-08T09:52:17.351Z,45.83
2023-01-08T09:54:44.487Z,45.93
2023-01-08T09:57:11.578Z,45.90
2023-01-08T09:59:38.660Z,45.89
2023-01-08T10:02:05.846Z,45.77
2023-01-08T10:07:21.839Z,45.76
2023-01-08T10:09:50.234Z,45.74
2023-01-08T10:12:17.373Z,45.84
2023-01-08T10:14:49.730Z,45.87
2023-01-08T10:17:16.841Z,45.93
2023-01-08T10:19:43.915Z,45.92
2023-01-08T10:24:57.951Z,45.99
2023-01-08T10:27:25.058Z,45.79
2023-01-08T10:29:52.149Z,45.97
2023-01-08T10:32:19.221Z,45.88
2023-01-08T10:34:46.317Z,45.98
2023-01-08T10:37:13.833Z,46.17
2023-01-08T10:39:40.904Z,46.21
2023-01-08T10:44:55.024Z,46.33
2023-01-08T10:47:22.128Z,45.98
2023-01-08T10:49:49.188Z,46.21
2023-01-08T10:55:03.243Z,46.26
2023-01-08T10:57:30.924Z,46.28
2023-01-08T10:59:58.037Z,46.46
2023-01-08T11:02:25.196Z,45.97
2023-01-08T11:04:52.326Z,46.46
2023-01-08T11:07:20.275Z,46.23
2023-01-08T11:09:47.954Z,46.23
2023-01-08T11:12:15.075Z,46.69
2023-01-08T11:14:42.169Z,47.01
2023-01-08T11:19:57.251Z,46.78
2023-01-08T11:22:24.368Z,47.16
2023-01-08T11:24:51.509Z,47.48
2023-01-08T11:30:05.550Z,47.42
2023-01-08T11:32:32.611Z,47.98
2023-01-08T11:37:46.845Z,48.53
2023-01-08T11:40:13.989Z,48.00
2023-01-08T11:42:41.082Z,49.34
2023-01-08T11:45:08.174Z,49.06
2023-01-08T11:47:35.260Z,48.80
2023-01-08T11:50:02.341Z,48.68
2023-01-08T11:52:30.728Z,48.33
2023-01-08T11:54:57.813Z,48.07
2023-01-08T11:57:24.896Z,49.07
2023-01-08T11:59:51.971Z,48.88
2023-01-08T12:05:06.068Z,49.76
2023-01-08T12:07:33.165Z,49.84
2023-01-08T12:10:00.262Z,49.15
2023-01-08T12:12:27.448Z,49.96
2023-01-08T12:17:41.517Z,49.52
2023-01-08T12:20:08.733Z,49.46
2023-01-08T12:22:35.825Z,49.85
2023-01-08T12:25:02.941Z,49.80
2023-01-08T12:27:55.383Z,49.29
2023-01-08T12:30:17.097Z,48.83
2023-01-08T12:32:44.232Z,48.49
2023-01-08T12:35:11.313Z,49.11
2023-01-08T12:37:38.388Z,47.87
2023-01-08T12:40:07.590Z,49.05
2023-01-08T12:42:34.693Z,47.93
2023-01-08T12:45:01.837Z,48.15
2023-01-08T12:47:28.950Z,48.48
2023-01-08T12:49:56.044Z,48.18
2023-01-08T12:52:23.225Z,48.09
2023-01-08T12:54:50.380Z,48.11
2023-01-08T12:57:17.643Z,48.41
2023-01-08T12:59:44.897Z,48.06
2023-01-08T13:02:12.094Z,48.05
2023-01-08T13:04:39.290Z,48.15
2023-01-08T13:07:06.365Z,48.36
2023-01-08T13:09:33.581Z,47.67
2023-01-08T13:12:00.730Z,47.89
2023-01-08T13:14:27.881Z,47.92
2023-01-08T13:16:55.021Z,48.16
2023-01-08T13:19:22.213Z,48.06
2023-01-08T13:21:49.275Z,47.95
2023-01-08T13:24:16.329Z,47.48
2023-01-08T13:26:44.929Z,48.27
2023-01-08T13:29:12.094Z,48.12
2023-01-08T13:31:39.229Z,47.46
2023-01-08T13:34:06.341Z,48.07
2023-01-08T13:36:33.419Z,48.15
2023-01-08T13:39:00.557Z,47.93
2023-01-08T13:41:27.645Z,47.86
2023-01-08T13:43:54.716Z,48.21
2023-01-08T13:46:21.777Z,48.10
2023-01-08T13:48:48.937Z,47.78
2023-01-08T13:51:16.020Z,47.60
2023-01-08T13:53:43.082Z,47.61
2023-01-08T13:56:10.163Z,47.56
2023-01-08T13:58:37.310Z,47.71
2023-01-08T14:01:04.488Z,47.57
2023-01-08T14:03:33.863Z,47.81
2023-01-08T14:06:02.384Z,47.74
2023-01-08T14:08:29.524Z,47.55
2023-01-08T14:10:56.587Z,47.57
2023-01-08T14:13:23.669Z,47.66
2023-01-08T14:15:50.751Z,47.27
2023-01-08T14:18:17.830Z,47.59
2023-01-08T14:23:32.203Z,47.30
2023-01-08T14:28:46.520Z,47.50
2023-01-08T14:31:13.653Z,47.18
2023-01-08T14:33:42.038Z,47.56
2023-01-08T14:36:09.147Z,47.20
2023-01-08T14:38:36.246Z,47.45
2023-01-08T14:41:03.739Z,47.52
2023-01-08T14:43:30.852Z,47.16
2023-01-08T14:45:57.985Z,47.41
2023-01-08T14:48:25.139Z,47.13
2023-01-08T14:50:52.236Z,47.22
2023-01-08T14:53:19.337Z,47.46
2023-01-08T14:55:46.463Z,47.04
2023-01-08T14:58:14.010Z,47.47
2023-01-08T15:00:41.116Z,47.50
2023-01-08T15:03:08.280Z,47.38
2023-01-08T15:05:35.514Z,47.24
2023-01-08T15:08:02.655Z,47.62
2023-01-08T15:10:29.941Z,47.42
2023-01-08T15:12:57.470Z,47.79
2023-01-08T15:15:24.591Z,47.35
2023-01-08T15:17:51.725Z,47.61
2023-01-08T15:20:18.822Z,47.49
2023-01-08T15:22:45.903Z,47.71
2023-01-08T15:25:12.977Z,47.50
2023-01-08T15:27:40.234Z,47.32
2023-01-08T15:30:09.177Z,47.39
2023-01-08T15:32:37.397Z,47.34
2023-01-08T15:35:04.565Z,47.45
2023-01-08T15:40:18.978Z,47.49
2023-01-08T15:43:04.679Z,47.65
2023-01-08T15:45:32.529Z,47.29
2023-01-08T15:47:59.718Z,47.49
2023-01-08T15:50:26.840Z,47.41
2023-01-08T15:52:54.001Z,47.40
2023-01-08T15:55:21.247Z,47.48
2023-01-08T15:57:48.333Z,47.46
2023-01-08T16:00:15.409Z,47.31
2023-01-08T16:02:44.920Z,47.33
2023-01-08T16:05:13.422Z,47.32
2023-01-08T16:07:40.533Z,47.15
2023-01-08T16:10:07.620Z,47.14
2023-01-08T16:12:34.764Z,47.39
2023-01-08T16:15:01.881Z,47.30
2023-01-08T16:17:28.983Z,47.32
2023-01-08T16:19:56.044Z,47.42
2023-01-08T16:22:23.124Z,46.99
2023-01-08T16:24:50.206Z,47.04
2023-01-08T16:27:17.356Z,47.39
2023-01-08T16:29:45.099Z,46.98
2023-01-08T16:32:12.161Z,47.44
2023-01-08T16:34:39.274Z,47.33
2023-01-08T16:37:06.602Z,47.07
2023-01-08T16:39:33.726Z,46.86
2023-01-08T16:42:00.883Z,47.02
2023-01-08T16:44:28.745Z,46.98
2023-01-08T16:46:55.917Z,46.90
2023-01-08T16:49:22.992Z,47.00
2023-01-08T16:51:50.144Z,46.99
2023-01-08T16:54:17.201Z,46.88
2023-01-08T16:56:45.054Z,47.16
2023-01-08T16:59:22.701Z,47.32
2023-01-08T17:01:50.584Z,47.31
2023-01-08T17:04:17.728Z,47.05
2023-01-08T17:09:33.680Z,47.00
2023-01-08T17:12:00.779Z,47.06
2023-01-08T17:14:28.217Z,46.91
2023-01-08T17:16:55.389Z,46.78
2023-01-08T17:19:22.551Z,47.18
2023-01-08T17:21:50.250Z,47.18
2023-01-08T17:24:17.354Z,46.68
2023-01-08T17:26:44.815Z,47.15
2023-01-08T17:29:11.906Z,46.75
2023-01-08T17:31:42.129Z,46.99
2023-01-08T17:34:09.261Z,46.91
2023-01-08T17:36:36.527Z,47.25
2023-01-08T17:39:03.632Z,47.26
2023-01-08T17:44:36.467Z,47.08
2023-01-08T17:47:03.580Z,46.66
2023-01-08T17:49:31.137Z,46.64
2023-01-08T17:51:58.352Z,46.69
2023-01-08T17:54:25.496Z,46.98
2023-01-08T17:56:53.636Z,47.22
2023-01-08T17:59:20.880Z,46.76
2023-01-08T18:01:48.095Z,46.79
2023-01-08T18:04:15.285Z,46.93
2023-01-08T18:06:42.390Z,47.04
2023-01-08T18:09:10.039Z,46.88
2023-01-08T18:11:37.203Z,47.10
2023-01-08T18:14:04.275Z,47.00
2023-01-08T18:16:31.503Z,47.14
2023-01-08T18:18:58.649Z,47.20
2023-01-08T18:21:25.804Z,47.17
2023-01-08T18:23:52.871Z,46.86
2023-01-08T18:26:20.712Z,47.14
2023-01-08T18:28:47.778Z,46.98
2023-01-08T18:31:14.944Z,47.08
2023-01-08T18:33:42.036Z,47.20
2023-01-08T18:36:09.594Z,47.28
2023-01-08T18:38:37.990Z,47.07
2023-01-08T18:41:05.242Z,47.02
2023-01-08T18:43:32.328Z,46.98
2023-01-08T18:46:00.591Z,47.11
2023-01-08T18:48:27.704Z,46.88
2023-01-08T18:50:54.791Z,47.07
2023-01-08T18:53:22.006Z,47.02
2023-01-08T18:55:50.201Z,47.22
2023-01-08T18:58:17.258Z,47.17
2023-01-08T19:00:44.722Z,47.13
2023-01-08T19:03:12.374Z,47.18
2023-01-08T19:05:39.444Z,47.07
2023-01-08T19:08:06.517Z,47.06
2023-01-08T19:10:33.641Z,47.03
2023-01-08T19:13:00.747Z,47.01
2023-01-08T19:15:27.869Z,46.99
2023-01-08T19:17:54.950Z,47.20
2023-01-08T19:20:22.019Z,46.69
2023-01-08T19:25:36.097Z,46.74
2023-01-08T19:28:03.169Z,46.76
2023-01-08T19:30:30.669Z,47.15
2023-01-08T19:32:57.814Z,46.84
2023-01-08T19:35:24.879Z,47.30
2023-01-08T19:37:51.954Z,47.10
2023-01-08T19:40:19.028Z,46.96
2023-01-08T19:43:05.003Z,46.84
2023-01-08T19:45:32.140Z,47.14
2023-01-08T19:47:59.370Z,47.26
2023-01-08T19:50:26.476Z,46.98
2023-01-08T19:52:53.563Z,46.99
2023-01-08T19:55:22.268Z,46.87
2023-01-08T20:00:38.993Z,47.47
2023-01-08T20:03:06.521Z,47.38
2023-01-08T20:05:33.652Z,47.37
2023-01-08T20:08:00.718Z,47.39
2023-01-08T20:10:27.787Z,47.68
2023-01-08T20:12:54.863Z,47.68
2023-01-08T20:15:21.976Z,47.81
2023-01-08T20:20:36.063Z,47.30
2023-01-08T20:23:03.126Z,47.69
2023-01-08T20:25:30.240Z,47.75
2023-01-08T20:27:57.339Z,47.91
2023-01-08T20:30:24.484Z,47.48
2023-01-08T20:32:51.673Z,47.40
2023-01-08T20:35:18.929Z,47.25
2023-01-08T20:37:46.916Z,47.19
2023-01-08T20:40:14.125Z,47.57
2023-01-08T20:42:45.611Z,47.73
2023-01-08T20:45:16.271Z,47.69
2023-01-08T20:47:52.284Z,47.59
2023-01-08T20:50:20.521Z,47.16
2023-01-08T20:55:34.684Z,47.13
2023-01-08T20:58:01.755Z,47.08
2023-01-08T21:00:28.897Z,47.10
2023-01-08T21:02:55.963Z,47.51
2023-01-08T21:05:24.616Z,47.44
2023-01-08T21:07:51.723Z,47.42
2023-01-08T21:10:18.786Z,47.13
2023-01-08T21:12:45.977Z,47.36
2023-01-08T21:15:13.172Z,47.44
2023-01-08T21:17:40.267Z,47.45
2023-01-08T21:20:07.717Z,47.19
2023-01-08T21:22:34.972Z,47.19
2023-01-08T21:25:02.038Z,47.27
2023-01-08T21:27:29.174Z,47.34
2023-01-08T21:29:56.281Z,47.40
2023-01-08T21:32:23.351Z,47.05
2023-01-08T21:34:50.483Z,47.37
2023-01-08T21:37:17.628Z,47.33
2023-01-08T21:39:44.715Z,47.34
2023-01-08T21:42:30.309Z,47.26
2023-01-08T21:45:16.002Z,47.02
2023-01-08T21:47:43.111Z,47.25
2023-01-08T21:50:10.199Z,47.37
2023-01-08T21:52:56.165Z,46.98
2023-01-08T21:55:23.238Z,47.25
2023-01-08T21:57:50.308Z,47.32
2023-01-08T22:00:17.519Z,47.35
2023-01-08T22:02:44.632Z,47.57
2023-01-08T22:05:11.789Z,47.36
2023-01-08T22:07:38.915Z,47.42
2023-01-08T22:10:06.032Z,47.34
2023-01-08T22:12:33.139Z,47.54
2023-01-08T22:15:00.219Z,47.54
2023-01-08T22:17:27.401Z,47.53
2023-01-08T22:19:54.583Z,47.58
2023-01-08T22:22:21.666Z,47.36
2023-01-08T22:27:35.775Z,47.46
2023-01-08T22:30:02.966Z,47.22
2023-01-08T22:32:30.046Z,47.36
2023-01-08T22:34:57.180Z,47.48
2023-01-08T22:37:24.321Z,47.45
2023-01-08T22:39:51.410Z,47.22
2023-01-08T22:42:18.505Z,47.27
2023-01-08T22:44:45.598Z,47.41
2023-01-08T22:47:12.757Z,47.26
2023-01-08T22:49:39.929Z,47.19
2023-01-08T22:52:07.888Z,47.40
2023-01-08T22:54:34.979Z,47.45
2023-01-08T22:57:02.044Z,47.30
2023-01-08T22:59:29.126Z,47.54
2023-01-08T23:01:56.245Z,47.44
2023-01-08T23:04:23.326Z,47.16
2023-01-08T23:06:50.406Z,47.42
2023-01-08T23:09:17.558Z,47.28
2023-01-08T23:11:44.630Z,47.21
2023-01-08T23:14:11.721Z,47.15
2023-01-08T23:16:38.945Z,47.55
2023-01-08T23:19:06.106Z,47.41
2023-01-08T23:21:33.254Z,47.49
2023-01-08T23:24:00.368Z,47.28
2023-01-08T23:26:27.463Z,47.47
2023-01-08T23:28:54.562Z,47.27
2023-01-08T23:31:21.673Z,47.19
2023-01-08T23:36:35.828Z,47.45
2023-01-08T23:39:02.880Z,47.32
2023-01-08T23:41:34.830Z,47.21
2023-01-08T23:44:02.642Z,47.49
2023-01-08T23:46:29.750Z,47.43
2023-01-08T23:48:56.888Z,47.42
2023-01-08T23:51:23.948Z,47.60
2023-01-08T23:53:54.153Z,47.47
2023-01-08T23:56:21.208Z,47.44
